createdAt,value
2023-05-24T00:00:24.519Z,6.92
2023-05-24T00:01:24.513Z,7.01
2023-05-24T00:02:24.659Z,6.75
2023-05-24T00:03:24.608Z,6.89
2023-05-24T00:04:24.668Z,6.80
2023-05-24T00:05:24.561Z,6.89
2023-05-24T00:06:24.545Z,6.74
2023-05-24T00:07:24.613Z,6.74
2023-05-24T00:08:24.566Z,6.88
2023-05-24T00:09:24.601Z,6.80
2023-05-24T00:10:24.609Z,6.77
2023-05-24T00:11:24.612Z,6.68
2023-05-24T00:12:24.658Z,6.75
2023-05-24T00:13:24.673Z,6.57
2023-05-24T00:14:24.717Z,6.63
2023-05-24T00:15:24.749Z,6.67
2023-05-24T00:16:24.821Z,6.46
2023-05-24T00:17:24.816Z,6.74
2023-05-24T00:18:24.784Z,6.66
2023-05-24T00:19:24.787Z,6.68
2023-05-24T00:20:24.869Z,6.46
2023-05-24T00:21:24.819Z,6.44
2023-05-24T00:22:24.811Z,6.52
2023-05-24T00:23:24.818Z,6.54
2023-05-24T00:24:24.852Z,6.43
2023-05-24T00:25:24.893Z,6.41
2023-05-24T00:26:24.963Z,6.61
2023-05-24T00:27:24.965Z,6.51
2023-05-24T00:28:25.002Z,6.39
2023-05-24T00:29:25.041Z,6.41
2023-05-24T00:30:25.063Z,6.43
2023-05-24T00:31:25.145Z,6.48
2023-05-24T00:32:25.181Z,6.49
2023-05-24T00:33:25.208Z,6.36
2023-05-24T00:34:25.235Z,6.42
2023-05-24T00:35:25.285Z,6.41
2023-05-24T00:36:25.348Z,6.42
2023-05-24T00:37:25.385Z,6.24
2023-05-24T00:38:25.420Z,6.34
2023-05-24T00:39:25.471Z,6.27
2023-05-24T00:40:25.490Z,6.19
2023-05-24T00:41:25.529Z,6.38
2023-05-24T00:42:25.569Z,6.16
2023-05-24T00:43:25.607Z,6.35
2023-05-24T00:44:25.640Z,6.24
2023-05-24T00:45:25.687Z,6.29
2023-05-24T00:46:25.785Z,6.14
2023-05-24T00:47:25.790Z,6.32
2023-05-24T00:48:25.817Z,6.16
2023-05-24T00:49:25.859Z,6.17
2023-05-24T00:50:25.890Z,6.32
2023-05-24T00:51:25.919Z,6.19
2023-05-24T00:52:26.009Z,6.18
2023-05-24T00:53:26.028Z,6.14
2023-05-24T00:54:26.072Z,6.11
2023-05-24T00:55:26.126Z,6.13
2023-05-24T00:56:26.205Z,6.02
2023-05-24T00:57:26.236Z,6.03
2023-05-24T00:58:26.282Z,5.93
2023-05-24T00:59:26.342Z,6.31
2023-05-24T01:00:26.337Z,6.30
2023-05-24T01:01:26.406Z,6.20
2023-05-24T01:02:26.344Z,6.06
2023-05-24T01:03:26.361Z,6.06
2023-05-24T01:04:26.283Z,6.12
2023-05-24T01:05:26.256Z,6.14
2023-05-24T01:06:26.255Z,5.86
2023-05-24T01:07:26.232Z,5.96
2023-05-24T01:08:26.230Z,6.11
2023-05-24T01:09:26.229Z,5.87
2023-05-24T01:10:26.260Z,5.92
2023-05-24T01:11:26.263Z,5.95
2023-05-24T01:12:26.281Z,5.84
2023-05-24T01:13:26.332Z,5.87
2023-05-24T01:14:26.353Z,5.82
2023-05-24T01:15:26.369Z,5.83
2023-05-24T01:16:26.462Z,5.91
2023-05-24T01:17:26.600Z,5.92
2023-05-24T01:18:26.426Z,5.93
2023-05-24T01:19:26.356Z,5.96
2023-05-24T01:20:26.354Z,5.82
2023-05-24T01:21:26.330Z,5.94
2023-05-24T01:22:26.353Z,5.90
2023-05-24T01:23:26.296Z,5.76
2023-05-24T01:24:26.274Z,5.78
2023-05-24T01:25:26.256Z,5.80
2023-05-24T01:26:26.261Z,5.82
2023-05-24T01:27:26.246Z,5.81
2023-05-24T01:28:26.229Z,5.86
2023-05-24T01:29:26.196Z,5.87
2023-05-24T01:30:26.750Z,5.86
2023-05-24T01:31:26.190Z,5.75
2023-05-24T01:32:26.177Z,5.66
2023-05-24T01:33:26.131Z,5.87
2023-05-24T01:34:26.335Z,5.71
2023-05-24T01:35:26.098Z,5.68
2023-05-24T01:36:26.551Z,5.68
2023-05-24T01:37:26.179Z,5.63
2023-05-24T01:38:26.040Z,5.73
2023-05-24T01:39:26.003Z,5.68
2023-05-24T01:40:26.012Z,5.67
2023-05-24T01:41:26.170Z,5.48
2023-05-24T01:42:26.014Z,5.61
2023-05-24T01:43:26.065Z,5.58
2023-05-24T01:44:26.068Z,5.58
2023-05-24T01:45:26.083Z,5.42
2023-05-24T01:46:26.139Z,5.57
2023-05-24T01:47:26.114Z,5.61
2023-05-24T01:48:26.087Z,5.47
2023-05-24T01:49:26.137Z,5.51
2023-05-24T01:50:26.181Z,5.55
2023-05-24T01:51:26.198Z,5.43
2023-05-24T01:52:26.230Z,5.57
2023-05-24T01:53:26.271Z,5.43
2023-05-24T01:54:26.262Z,5.31
2023-05-24T01:55:26.296Z,5.43
2023-05-24T01:56:26.312Z,5.46
2023-05-24T01:57:26.322Z,5.35
2023-05-24T01:58:26.347Z,5.37
2023-05-24T01:59:26.377Z,5.47
2023-05-24T02:00:26.383Z,5.39
2023-05-24T02:01:26.433Z,5.47
2023-05-24T02:02:26.424Z,5.36
2023-05-24T02:03:26.409Z,5.20
2023-05-24T02:04:26.420Z,5.34
2023-05-24T02:05:26.393Z,5.25
2023-05-24T02:06:26.422Z,5.28
2023-05-24T02:07:26.419Z,5.29
2023-05-24T02:08:26.436Z,5.46
2023-05-24T02:09:26.413Z,5.34
2023-05-24T02:10:26.398Z,5.34
2023-05-24T02:11:26.399Z,5.35
2023-05-24T02:12:26.363Z,5.27
2023-05-24T02:13:26.372Z,5.19
2023-05-24T02:14:26.419Z,5.29
2023-05-24T02:15:26.394Z,5.25
2023-05-24T02:16:26.383Z,5.17
2023-05-24T02:17:26.419Z,5.20
2023-05-24T02:18:26.374Z,5.16
2023-05-24T02:19:26.337Z,5.19
2023-05-24T02:20:26.349Z,5.18
2023-05-24T02:21:26.348Z,5.17
2023-05-24T02:22:26.387Z,5.07
2023-05-24T02:23:26.350Z,5.09
2023-05-24T02:24:26.381Z,5.17
2023-05-24T02:25:26.396Z,5.26
2023-05-24T02:26:26.425Z,5.11
2023-05-24T02:27:26.401Z,5.13
2023-05-24T02:28:26.398Z,5.06
2023-05-24T02:29:26.437Z,5.12
2023-05-24T02:30:26.432Z,5.07
2023-05-24T02:31:26.467Z,5.08
2023-05-24T02:32:26.403Z,5.09
2023-05-24T02:33:26.397Z,5.01
2023-05-24T02:34:26.371Z,4.96
2023-05-24T02:35:26.349Z,4.98
2023-05-24T02:36:26.350Z,5.06
2023-05-24T02:37:26.305Z,5.01
2023-05-24T02:38:26.287Z,5.03
2023-05-24T02:39:26.286Z,4.97
2023-05-24T02:40:26.284Z,4.90
2023-05-24T02:41:26.250Z,4.91
2023-05-24T02:42:26.224Z,5.01
2023-05-24T02:43:26.211Z,4.84
2023-05-24T02:44:26.182Z,5.05
2023-05-24T02:45:26.165Z,4.88
2023-05-24T02:46:26.239Z,4.92
2023-05-24T02:47:26.188Z,4.87
2023-05-24T02:48:26.141Z,4.97
2023-05-24T02:49:26.102Z,4.82
2023-05-24T02:50:26.094Z,4.89
2023-05-24T02:51:26.064Z,4.85
2023-05-24T02:52:26.056Z,4.81
2023-05-24T02:53:26.026Z,4.89
2023-05-24T02:54:26.010Z,4.84
2023-05-24T02:55:26.010Z,4.89
2023-05-24T02:56:26.000Z,4.79
2023-05-24T02:57:26.102Z,4.84
2023-05-24T02:58:26.150Z,4.70
2023-05-24T02:59:26.140Z,4.73
2023-05-24T03:00:26.119Z,4.83
2023-05-24T03:01:26.143Z,4.72
2023-05-24T03:02:26.086Z,4.73
2023-05-24T03:03:26.108Z,4.76
2023-05-24T03:04:26.117Z,4.65
2023-05-24T03:05:26.092Z,4.73
2023-05-24T03:06:26.122Z,4.64
2023-05-24T03:07:26.054Z,4.70
2023-05-24T03:08:26.048Z,4.71
2023-05-24T03:09:26.071Z,4.73
2023-05-24T03:10:26.097Z,4.51
2023-05-24T03:11:26.076Z,4.64
2023-05-24T03:12:26.083Z,4.67
2023-05-24T03:13:26.105Z,4.60
2023-05-24T03:14:26.132Z,4.62
2023-05-24T03:15:26.230Z,4.54
2023-05-24T03:16:26.222Z,4.56
2023-05-24T03:17:26.213Z,4.47
2023-05-24T03:18:26.200Z,4.46
2023-05-24T03:19:26.180Z,4.47
2023-05-24T03:20:26.166Z,4.48
2023-05-24T03:21:26.156Z,4.49
2023-05-24T03:22:26.116Z,4.50
2023-05-24T03:23:26.108Z,4.52
2023-05-24T03:24:26.108Z,4.51
2023-05-24T03:25:26.046Z,4.43
2023-05-24T03:26:26.027Z,4.41
2023-05-24T03:27:26.009Z,4.36
2023-05-24T03:28:25.979Z,4.45
2023-05-24T03:29:25.960Z,4.43
2023-05-24T03:30:25.956Z,4.36
2023-05-24T03:31:25.974Z,4.34
2023-05-24T03:32:25.926Z,4.34
2023-05-24T03:33:25.891Z,4.30
2023-05-24T03:34:25.861Z,4.34
2023-05-24T03:35:25.847Z,4.30
2023-05-24T03:36:25.831Z,4.21
2023-05-24T03:37:25.823Z,4.18
2023-05-24T03:38:25.795Z,4.15
2023-05-24T03:39:25.790Z,4.15
2023-05-24T03:40:25.816Z,4.20
2023-05-24T03:41:25.756Z,4.19
2023-05-24T03:42:25.733Z,4.21
2023-05-24T03:43:25.739Z,4.20
2023-05-24T03:44:25.709Z,4.20
2023-05-24T03:45:37.720Z,4.14
2023-05-24T03:46:26.735Z,4.14
2023-05-24T03:47:25.661Z,4.14
2023-05-24T03:48:25.652Z,4.15
2023-05-24T03:49:25.638Z,4.21
2023-05-24T03:50:25.632Z,4.17
2023-05-24T03:51:25.612Z,4.14
2023-05-24T03:52:25.587Z,4.15
2023-05-24T03:53:25.577Z,4.15
2023-05-24T03:54:25.573Z,4.15
2023-05-24T03:55:25.553Z,4.11
2023-05-24T03:56:25.534Z,4.13
2023-05-24T03:57:25.512Z,4.11
2023-05-24T03:58:25.497Z,4.09
2023-05-24T03:59:25.483Z,4.03
2023-05-24T04:00:25.484Z,4.04
2023-05-24T04:01:33.401Z,4.05
2023-05-24T04:02:26.515Z,4.05
2023-05-24T04:03:25.478Z,4.07
2023-05-24T04:04:25.481Z,4.05
2023-05-24T04:05:25.428Z,4.01
2023-05-24T04:06:25.396Z,4.02
2023-05-24T04:07:25.363Z,3.97
2023-05-24T04:08:25.344Z,3.94
2023-05-24T04:09:25.320Z,3.96
2023-05-24T04:10:25.323Z,3.95
2023-05-24T04:11:25.294Z,3.86
2023-05-24T04:12:25.271Z,3.89
2023-05-24T04:13:25.255Z,3.88
2023-05-24T04:14:25.241Z,3.83
2023-05-24T04:15:25.211Z,3.80
2023-05-24T04:16:25.271Z,3.84
2023-05-24T04:17:25.414Z,3.76
2023-05-24T04:18:25.210Z,3.79
2023-05-24T04:19:25.135Z,3.75
2023-05-24T04:20:25.175Z,3.74
2023-05-24T04:21:25.120Z,3.66
2023-05-24T04:22:25.871Z,3.77
2023-05-24T04:23:25.065Z,3.64
2023-05-24T04:24:25.062Z,3.64
2023-05-24T04:25:25.037Z,3.64
2023-05-24T04:26:25.013Z,3.64
2023-05-24T04:27:24.996Z,3.56
2023-05-24T04:28:24.982Z,3.57
2023-05-24T04:29:24.964Z,3.64
2023-05-24T04:30:24.938Z,3.56
2023-05-24T04:31:24.939Z,3.47
2023-05-24T04:32:24.907Z,3.60
2023-05-24T04:33:24.883Z,3.50
2023-05-24T04:34:24.864Z,3.51
2023-05-24T04:35:24.835Z,3.53
2023-05-24T04:36:24.833Z,3.46
2023-05-24T04:37:24.821Z,3.53
2023-05-24T04:38:24.807Z,3.42
2023-05-24T04:39:24.779Z,3.47
2023-05-24T04:40:24.853Z,3.37
2023-05-24T04:41:24.957Z,3.41
2023-05-24T04:42:25.029Z,3.36
2023-05-24T04:43:25.104Z,3.33
2023-05-24T04:44:25.204Z,3.37
2023-05-24T04:45:25.269Z,3.37
2023-05-24T04:46:25.383Z,3.32
2023-05-24T04:47:25.542Z,3.30
2023-05-24T04:48:25.536Z,3.28
2023-05-24T04:49:25.527Z,3.28
2023-05-24T04:50:25.513Z,3.32
2023-05-24T04:51:25.525Z,3.24
2023-05-24T04:52:25.491Z,3.17
2023-05-24T04:53:25.486Z,2.90
2023-05-24T04:54:25.553Z,2.49
2023-05-24T04:55:25.557Z,2.24
2023-05-24T04:56:25.553Z,2.07
2023-05-24T04:57:25.530Z,2.05
2023-05-24T04:58:25.516Z,2.04
2023-05-24T04:59:25.531Z,1.97
2023-05-24T05:00:25.585Z,1.87
2023-05-24T05:01:25.731Z,1.80
2023-05-24T05:02:25.780Z,1.81
2023-05-24T05:03:25.937Z,1.73
2023-05-24T05:04:25.943Z,1.75
2023-05-24T05:05:25.945Z,1.72
2023-05-24T05:06:25.947Z,1.70
2023-05-24T05:07:25.915Z,1.68
2023-05-24T05:08:25.918Z,1.62
2023-05-24T05:09:25.913Z,1.49
2023-05-24T05:10:25.974Z,1.44
2023-05-24T05:11:26.072Z,1.37
2023-05-24T05:12:26.150Z,1.36
2023-05-24T05:13:26.244Z,1.36
2023-05-24T05:14:26.391Z,1.41
2023-05-24T05:15:26.430Z,1.40
2023-05-24T05:16:26.567Z,1.41
2023-05-24T05:17:26.579Z,1.43
2023-05-24T05:18:26.681Z,1.40
2023-05-24T05:19:26.759Z,1.37
2023-05-24T05:20:26.913Z,1.37
2023-05-24T05:21:26.913Z,1.34
2023-05-24T05:22:26.902Z,1.32
2023-05-24T05:23:26.887Z,1.27
2023-05-24T05:24:26.883Z,1.30
2023-05-24T05:25:26.883Z,1.31
2023-05-24T05:26:26.969Z,1.29
2023-05-24T05:27:26.979Z,1.28
2023-05-24T05:28:26.955Z,1.30
2023-05-24T05:29:26.945Z,1.33
2023-05-24T05:30:26.938Z,1.29
2023-05-24T05:31:26.949Z,1.33
2023-05-24T05:32:27.141Z,1.38
2023-05-24T05:33:27.115Z,1.46
2023-05-24T05:34:27.136Z,1.53
2023-05-24T05:35:27.111Z,1.62
2023-05-24T05:36:27.096Z,1.61
2023-05-24T05:37:27.062Z,1.67
2023-05-24T05:38:27.083Z,1.73
2023-05-24T05:39:27.070Z,1.97
2023-05-24T05:40:27.032Z,2.13
2023-05-24T05:41:27.116Z,2.12
2023-05-24T05:42:27.214Z,2.22
2023-05-24T05:43:27.215Z,2.23
2023-05-24T05:44:27.169Z,2.25
2023-05-24T05:45:27.255Z,2.30
2023-05-24T05:46:27.150Z,2.49
2023-05-24T05:47:27.265Z,2.67
2023-05-24T05:48:27.126Z,2.69
2023-05-24T05:49:27.085Z,2.75
2023-05-24T05:50:27.031Z,2.80
2023-05-24T05:51:27.023Z,2.81
2023-05-24T05:52:27.004Z,2.60
2023-05-24T05:53:26.956Z,2.25
2023-05-24T05:54:26.935Z,1.56
2023-05-24T05:55:27.108Z,1.18
2023-05-24T05:56:26.894Z,0.91
2023-05-24T05:57:26.875Z,0.81
2023-05-24T05:58:26.859Z,0.73
2023-05-24T05:59:26.837Z,0.65
2023-05-24T06:00:26.817Z,0.58
2023-05-24T06:01:26.804Z,0.54
2023-05-24T06:02:26.921Z,0.50
2023-05-24T06:03:26.923Z,0.52
2023-05-24T06:04:26.791Z,0.49
2023-05-24T06:05:26.717Z,0.50
2023-05-24T06:06:26.715Z,0.55
2023-05-24T06:07:26.681Z,0.54
2023-05-24T06:08:26.676Z,0.53
2023-05-24T06:09:26.648Z,0.52
2023-05-24T06:10:26.716Z,0.53
2023-05-24T06:11:26.621Z,0.46
2023-05-24T06:12:26.586Z,0.46
2023-05-24T06:13:26.608Z,0.44
2023-05-24T06:14:26.556Z,0.49
2023-05-24T06:15:26.550Z,0.50
2023-05-24T06:16:26.606Z,0.53
2023-05-24T06:17:26.522Z,0.53
2023-05-24T06:18:26.499Z,0.54
2023-05-24T06:19:26.469Z,0.52
2023-05-24T06:20:26.498Z,0.54
2023-05-24T06:21:26.496Z,0.58
2023-05-24T06:22:26.523Z,0.59
2023-05-24T06:23:26.547Z,0.51
2023-05-24T06:24:26.602Z,0.51
2023-05-24T06:25:26.628Z,0.52
2023-05-24T06:26:26.722Z,0.51
2023-05-24T06:27:26.685Z,0.53
2023-05-24T06:28:26.740Z,0.50
2023-05-24T06:29:26.756Z,0.55
2023-05-24T06:30:26.875Z,0.56
2023-05-24T06:31:26.887Z,0.55
2023-05-24T06:32:26.860Z,0.54
2023-05-24T06:33:26.816Z,0.53
2023-05-24T06:34:26.788Z,0.57
2023-05-24T06:35:26.775Z,0.60
2023-05-24T06:36:26.767Z,0.79
2023-05-24T06:37:26.734Z,0.83
2023-05-24T06:38:26.727Z,0.83
2023-05-24T06:39:26.710Z,0.89
2023-05-24T06:40:26.702Z,0.95
2023-05-24T06:41:26.689Z,0.94
2023-05-24T06:42:26.725Z,1.14
2023-05-24T06:43:26.692Z,1.32
2023-05-24T06:44:26.705Z,1.64
2023-05-24T06:45:26.734Z,1.97
2023-05-24T06:46:26.811Z,2.24
2023-05-24T06:47:26.899Z,2.08
2023-05-24T06:48:26.855Z,1.59
2023-05-24T06:49:26.808Z,1.13
2023-05-24T06:50:26.900Z,1.02
2023-05-24T06:51:26.838Z,0.97
2023-05-24T06:52:26.860Z,0.98
2023-05-24T06:53:26.793Z,0.98
2023-05-24T06:54:26.811Z,1.03
2023-05-24T06:55:26.814Z,1.06
2023-05-24T06:56:26.777Z,1.05
2023-05-24T06:57:26.834Z,0.96
2023-05-24T06:58:26.729Z,0.83
2023-05-24T06:59:26.716Z,0.73
2023-05-24T07:00:26.728Z,0.71
2023-05-24T07:01:26.809Z,0.80
2023-05-24T07:02:26.747Z,0.94
2023-05-24T07:03:26.660Z,1.22
2023-05-24T07:04:26.692Z,1.56
2023-05-24T07:05:26.830Z,1.76
2023-05-24T07:06:26.643Z,1.94
2023-05-24T07:07:26.647Z,2.05
2023-05-24T07:08:26.722Z,2.29
2023-05-24T07:09:26.829Z,2.54
2023-05-24T07:10:26.869Z,2.55
2023-05-24T07:11:26.820Z,2.64
2023-05-24T07:12:26.790Z,2.89
2023-05-24T07:13:26.760Z,3.32
2023-05-24T07:14:26.745Z,4.19
2023-05-24T07:15:26.736Z,4.74
2023-05-24T07:16:26.737Z,5.11
2023-05-24T07:17:26.705Z,5.33
2023-05-24T07:18:26.707Z,5.69
2023-05-24T07:19:26.655Z,6.13
2023-05-24T07:20:26.706Z,6.35
2023-05-24T07:21:26.631Z,6.51
2023-05-24T07:22:26.568Z,6.94
2023-05-24T07:23:26.550Z,7.18
2023-05-24T07:24:26.590Z,7.62
2023-05-24T07:25:26.516Z,7.92
2023-05-24T07:26:26.540Z,7.41
2023-05-24T07:27:26.551Z,4.37
2023-05-24T07:28:26.587Z,3.05
2023-05-24T07:29:26.536Z,2.24
2023-05-24T07:31:26.498Z,1.65
2023-05-24T07:32:26.527Z,1.39
2023-05-24T07:33:26.501Z,1.32
2023-05-24T07:34:26.448Z,1.23
2023-05-24T07:35:26.447Z,1.29
2023-05-24T07:36:26.408Z,1.46
2023-05-24T07:37:26.422Z,1.58
2023-05-24T07:38:26.347Z,1.87
2023-05-24T07:39:26.344Z,2.10
2023-05-24T07:40:26.326Z,2.11
2023-05-24T07:41:26.297Z,2.19
2023-05-24T07:42:26.268Z,2.40
2023-05-24T07:43:26.256Z,2.82
2023-05-24T07:44:26.254Z,3.78
2023-05-24T07:45:26.209Z,4.30
2023-05-24T07:46:26.223Z,4.83
2023-05-24T07:47:26.227Z,5.39
2023-05-24T07:48:26.149Z,5.90
2023-05-24T07:49:26.150Z,6.47
2023-05-24T07:50:26.140Z,6.72
2023-05-24T07:51:26.119Z,7.07
2023-05-24T07:52:26.153Z,7.38
2023-05-24T07:53:26.172Z,7.76
2023-05-24T07:54:26.230Z,8.21
2023-05-24T07:55:26.264Z,8.54
2023-05-24T07:56:26.308Z,8.79
2023-05-24T07:57:26.302Z,8.76
2023-05-24T07:58:26.298Z,8.91
2023-05-24T07:59:26.361Z,9.13
2023-05-24T08:00:26.406Z,9.69
2023-05-24T08:01:26.492Z,10.05
2023-05-24T08:02:26.524Z,10.17
2023-05-24T08:03:26.600Z,10.63
2023-05-24T08:04:26.550Z,10.64
2023-05-24T08:05:26.603Z,11.47
2023-05-24T08:06:26.674Z,11.67
2023-05-24T08:07:26.851Z,12.08
2023-05-24T08:08:26.713Z,12.47
2023-05-24T08:09:26.748Z,12.68
2023-05-24T08:10:26.797Z,13.28
2023-05-24T08:11:26.814Z,13.31
2023-05-24T08:12:26.922Z,13.34
2023-05-24T08:13:26.870Z,13.37
2023-05-24T08:14:26.916Z,13.82
2023-05-24T08:15:26.901Z,13.84
2023-05-24T08:16:26.979Z,13.87
2023-05-24T08:17:26.873Z,13.94
2023-05-24T08:18:26.889Z,14.17
2023-05-24T08:19:26.800Z,14.66
2023-05-24T08:20:26.788Z,14.83
2023-05-24T08:21:26.790Z,14.83
2023-05-24T08:22:26.746Z,15.06
2023-05-24T08:23:26.713Z,15.12
2023-05-24T08:24:26.684Z,14.89
2023-05-24T08:25:26.805Z,14.78
2023-05-24T08:26:26.745Z,14.58
2023-05-24T08:27:26.790Z,14.96
2023-05-24T08:28:26.859Z,15.14
2023-05-24T08:29:26.855Z,15.35
2023-05-24T08:30:26.929Z,14.73
2023-05-24T08:31:26.865Z,14.75
2023-05-24T08:32:26.920Z,14.81
2023-05-24T08:33:26.793Z,11.88
2023-05-24T08:34:26.802Z,9.94
2023-05-24T08:35:26.760Z,8.33
2023-05-24T08:36:26.725Z,8.42
2023-05-24T08:37:26.691Z,8.29
2023-05-24T08:38:26.728Z,8.65
2023-05-24T08:39:26.648Z,8.26
2023-05-24T08:40:26.680Z,7.56
2023-05-24T08:41:26.743Z,7.06
2023-05-24T08:42:26.781Z,6.91
2023-05-24T08:43:26.833Z,6.61
2023-05-24T08:44:26.856Z,6.48
2023-05-24T08:45:26.889Z,6.21
2023-05-24T08:46:27.022Z,6.74
2023-05-24T08:47:26.919Z,6.74
2023-05-24T08:48:27.010Z,6.74
2023-05-24T08:49:26.904Z,6.41
2023-05-24T08:50:26.832Z,6.44
2023-05-24T08:51:26.805Z,6.92
2023-05-24T08:52:26.828Z,6.69
2023-05-24T08:53:26.774Z,6.45
2023-05-24T08:54:26.750Z,4.84
2023-05-24T08:55:26.736Z,3.63
2023-05-24T08:56:26.707Z,2.95
2023-05-24T08:57:26.700Z,2.36
2023-05-24T08:58:26.691Z,2.14
2023-05-24T08:59:26.671Z,1.90
2023-05-24T09:00:26.655Z,1.94
2023-05-24T09:01:29.728Z,1.91
2023-05-24T09:02:26.755Z,1.86
2023-05-24T09:03:26.869Z,1.73
2023-05-24T09:04:26.672Z,1.61
2023-05-24T09:05:26.574Z,1.51
2023-05-24T09:06:26.592Z,1.48
2023-05-24T09:07:26.532Z,1.48
2023-05-24T09:08:26.518Z,1.36
2023-05-24T09:09:26.498Z,1.31
2023-05-24T09:10:26.482Z,1.28
2023-05-24T09:11:26.455Z,1.31
2023-05-24T09:12:36.280Z,1.16
2023-05-24T09:13:27.449Z,1.19
2023-05-24T09:14:26.396Z,1.40
2023-05-24T09:15:26.392Z,1.65
2023-05-24T09:16:26.405Z,1.76
2023-05-24T09:17:26.375Z,1.91
2023-05-24T09:18:26.330Z,1.92
2023-05-24T09:19:26.304Z,1.92
2023-05-24T09:20:26.353Z,1.88
2023-05-24T09:21:26.270Z,1.93
2023-05-24T09:22:26.244Z,1.92
2023-05-24T09:23:26.252Z,1.56
2023-05-24T09:24:26.193Z,1.75
2023-05-24T09:25:26.203Z,1.65
2023-05-24T09:26:26.180Z,1.60
2023-05-24T09:27:26.199Z,1.63
2023-05-24T09:28:26.150Z,1.63
2023-05-24T09:29:26.133Z,1.62
2023-05-24T09:30:26.117Z,1.48
2023-05-24T09:31:26.169Z,1.31
2023-05-24T09:32:26.179Z,1.20
2023-05-24T09:33:26.045Z,1.20
2023-05-24T09:34:26.015Z,1.28
2023-05-24T09:35:26.011Z,1.42
2023-05-24T09:36:25.991Z,1.21
2023-05-24T09:37:29.977Z,1.29
2023-05-24T09:38:26.945Z,1.29
2023-05-24T09:39:25.925Z,1.30
2023-05-24T09:40:25.894Z,1.32
2023-05-24T09:41:25.886Z,1.39
2023-05-24T09:42:26.599Z,1.60
2023-05-24T09:43:26.538Z,1.65
2023-05-24T09:44:25.851Z,1.56
2023-05-24T09:45:25.784Z,1.17
2023-05-24T09:46:25.797Z,1.30
2023-05-24T09:47:25.812Z,1.31
2023-05-24T09:48:25.732Z,1.64
2023-05-24T09:49:25.725Z,2.10
2023-05-24T09:50:25.712Z,2.66
2023-05-24T09:51:25.724Z,2.65
2023-05-24T09:52:25.681Z,2.92
2023-05-24T09:53:25.640Z,3.45
2023-05-24T09:54:25.616Z,4.52
2023-05-24T09:55:25.606Z,4.69
2023-05-24T09:56:25.618Z,4.71
2023-05-24T09:57:25.602Z,4.73
2023-05-24T09:58:25.552Z,4.72
2023-05-24T09:59:25.516Z,4.71
2023-05-24T10:00:25.542Z,4.98
2023-05-24T10:01:25.602Z,5.38
2023-05-24T10:02:25.644Z,4.91
2023-05-24T10:03:25.647Z,4.95
2023-05-24T10:04:25.705Z,4.94
2023-05-24T10:05:25.596Z,4.70
2023-05-24T10:06:25.674Z,4.16
2023-05-24T10:07:25.653Z,3.97
2023-05-24T10:08:25.637Z,3.94
2023-05-24T10:09:25.633Z,3.96
2023-05-24T10:10:25.630Z,4.10
2023-05-24T10:11:25.767Z,4.26
2023-05-24T10:12:25.664Z,4.05
2023-05-24T10:13:25.697Z,4.32
2023-05-24T10:14:25.673Z,4.13
2023-05-24T10:15:25.653Z,3.91
2023-05-24T10:16:25.787Z,3.94
2023-05-24T10:17:25.612Z,4.30
2023-05-24T10:18:25.578Z,4.47
2023-05-24T10:19:25.550Z,4.76
2023-05-24T10:20:25.612Z,4.77
2023-05-24T10:21:25.586Z,4.85
2023-05-24T10:22:25.552Z,5.06
2023-05-24T10:23:25.452Z,5.65
2023-05-24T10:24:25.419Z,6.76
2023-05-24T10:25:25.396Z,6.38
2023-05-24T10:26:25.395Z,6.89
2023-05-24T10:27:25.425Z,7.65
2023-05-24T10:28:25.385Z,8.04
2023-05-24T10:29:25.322Z,8.52
2023-05-24T10:30:25.361Z,8.96
2023-05-24T10:31:25.445Z,8.65
2023-05-24T10:32:25.448Z,8.55
2023-05-24T10:33:25.419Z,9.15
2023-05-24T10:34:25.503Z,8.90
2023-05-24T10:35:25.454Z,9.35
2023-05-24T10:36:25.506Z,9.63
2023-05-24T10:37:25.544Z,9.86
2023-05-24T10:38:25.573Z,9.98
2023-05-24T10:39:25.617Z,10.54
2023-05-24T10:40:25.644Z,10.10
2023-05-24T10:41:25.656Z,9.28
2023-05-24T10:42:25.706Z,8.97
2023-05-24T10:43:25.741Z,8.87
2023-05-24T10:44:25.752Z,8.78
2023-05-24T10:45:25.828Z,8.71
2023-05-24T10:46:25.911Z,8.72
2023-05-24T10:47:25.900Z,8.83
2023-05-24T10:48:25.933Z,8.62
2023-05-24T10:49:25.988Z,8.53
2023-05-24T10:50:26.012Z,8.53
2023-05-24T10:51:26.079Z,8.44
2023-05-24T10:52:26.095Z,8.28
2023-05-24T10:53:26.161Z,8.13
2023-05-24T10:54:26.178Z,7.87
2023-05-24T10:55:26.189Z,7.71
2023-05-24T10:56:26.245Z,7.46
2023-05-24T10:57:26.256Z,7.53
2023-05-24T10:58:26.302Z,7.51
2023-05-24T10:59:26.333Z,7.47
2023-05-24T11:00:34.577Z,7.36
2023-05-24T11:01:27.382Z,7.37
2023-05-24T11:02:26.349Z,7.25
2023-05-24T11:03:26.308Z,7.19
2023-05-24T11:04:26.262Z,7.07
2023-05-24T11:05:26.294Z,7.12
2023-05-24T11:06:26.207Z,6.91
2023-05-24T11:07:26.188Z,7.15
2023-05-24T11:08:26.173Z,7.29
2023-05-24T11:09:26.143Z,7.21
2023-05-24T11:10:26.177Z,7.34
2023-05-24T11:11:28.036Z,7.58
2023-05-24T11:12:26.129Z,7.58
2023-05-24T11:13:26.076Z,7.60
2023-05-24T11:14:26.051Z,7.61
2023-05-24T11:15:26.022Z,7.68
2023-05-24T11:16:26.025Z,7.92
2023-05-24T11:17:26.008Z,8.43
2023-05-24T11:18:26.079Z,8.48
2023-05-24T11:19:25.929Z,8.32
2023-05-24T11:20:25.971Z,8.36
2023-05-24T11:21:25.891Z,8.49
2023-05-24T11:22:25.962Z,8.61
2023-05-24T11:23:25.899Z,8.75
2023-05-24T11:24:25.824Z,8.41
2023-05-24T11:25:25.809Z,8.14
2023-05-24T11:26:25.812Z,8.17
2023-05-24T11:27:25.776Z,7.95
2023-05-24T11:28:25.838Z,8.21
2023-05-24T11:29:25.715Z,8.32
2023-05-24T11:30:25.702Z,7.92
2023-05-24T11:31:25.678Z,8.26
2023-05-24T11:32:25.740Z,8.30
2023-05-24T11:33:25.671Z,8.55
2023-05-24T11:34:25.638Z,8.49
2023-05-24T11:35:25.607Z,8.54
2023-05-24T11:36:25.587Z,8.34
2023-05-24T11:37:38.525Z,8.43
2023-05-24T11:38:26.571Z,8.45
2023-05-24T11:39:25.538Z,8.49
2023-05-24T11:40:25.545Z,8.60
2023-05-24T11:41:25.490Z,8.75
2023-05-24T11:42:25.477Z,8.76
2023-05-24T11:43:25.455Z,9.23
2023-05-24T11:44:25.419Z,9.32
2023-05-24T11:45:25.392Z,9.08
2023-05-24T11:46:25.420Z,9.36
2023-05-24T11:47:25.435Z,9.41
2023-05-24T11:48:25.345Z,9.28
2023-05-24T11:49:25.311Z,9.67
2023-05-24T11:50:26.682Z,9.67
2023-05-24T11:51:25.254Z,9.70
2023-05-24T11:52:25.260Z,9.83
2023-05-24T11:53:25.271Z,10.05
2023-05-24T11:54:25.197Z,10.48
2023-05-24T11:55:25.164Z,10.18
2023-05-24T11:56:25.126Z,10.26
2023-05-24T11:57:25.117Z,10.00
2023-05-24T11:58:25.099Z,9.96
2023-05-24T11:59:25.067Z,10.03
2023-05-24T12:00:25.052Z,10.09
2023-05-24T12:01:25.033Z,9.74
2023-05-24T12:02:25.074Z,9.80
2023-05-24T12:03:25.108Z,9.43
2023-05-24T12:04:25.000Z,9.42
2023-05-24T12:05:24.906Z,9.31
2023-05-24T12:06:24.909Z,9.15
2023-05-24T12:07:24.873Z,9.38
2023-05-24T12:08:24.847Z,8.63
2023-05-24T12:09:24.859Z,8.45
2023-05-24T12:10:24.805Z,8.58
2023-05-24T12:11:24.780Z,8.42
2023-05-24T12:12:30.465Z,8.12
2023-05-24T12:13:25.732Z,8.13
2023-05-24T12:14:24.766Z,8.08
2023-05-24T12:15:24.651Z,8.10
2023-05-24T12:16:24.678Z,7.79
2023-05-24T12:17:24.623Z,7.92
2023-05-24T12:18:24.820Z,7.79
2023-05-24T12:19:33.225Z,7.58
2023-05-24T12:20:25.540Z,7.75
2023-05-24T12:21:24.455Z,7.90
2023-05-24T12:22:24.449Z,7.60
2023-05-24T12:23:24.418Z,7.47
2023-05-24T12:24:24.382Z,7.65
2023-05-24T12:25:24.501Z,7.32
2023-05-24T12:26:24.318Z,7.11
2023-05-24T12:27:24.283Z,7.44
2023-05-24T12:28:24.256Z,7.43
2023-05-24T12:29:24.244Z,7.45
2023-05-24T12:30:24.235Z,7.53
2023-05-24T12:31:24.230Z,7.61
2023-05-24T12:32:24.181Z,7.75
2023-05-24T12:33:24.136Z,8.12
2023-05-24T12:34:24.112Z,8.18
2023-05-24T12:35:24.080Z,8.50
2023-05-24T12:36:24.077Z,8.23
2023-05-24T12:37:24.063Z,8.52
2023-05-24T12:38:24.044Z,8.48
2023-05-24T12:39:23.997Z,8.66
2023-05-24T12:40:23.967Z,8.95
2023-05-24T12:41:23.945Z,9.38
2023-05-24T12:42:23.923Z,10.18
2023-05-24T12:43:23.895Z,10.70
2023-05-24T12:44:23.880Z,11.19
2023-05-24T12:45:23.844Z,11.72
2023-05-24T12:46:23.823Z,12.22
2023-05-24T12:47:23.984Z,12.63
2023-05-24T12:48:23.762Z,12.91
2023-05-24T12:49:23.749Z,13.02
2023-05-24T12:50:23.720Z,13.36
2023-05-24T12:51:23.703Z,13.43
2023-05-24T12:52:24.634Z,13.74
2023-05-24T12:53:23.640Z,14.18
2023-05-24T12:54:23.663Z,14.61
2023-05-24T12:55:23.689Z,14.82
2023-05-24T12:56:23.677Z,15.35
2023-05-24T12:57:23.698Z,15.95
2023-05-24T12:58:23.729Z,16.77
2023-05-24T12:59:23.672Z,18.13
2023-05-24T13:00:23.682Z,18.89
2023-05-24T13:01:23.737Z,19.26
2023-05-24T13:02:23.795Z,19.39
2023-05-24T13:03:23.796Z,19.42
2023-05-24T13:04:23.849Z,19.57
2023-05-24T13:05:23.954Z,19.31
2023-05-24T13:06:23.954Z,19.12
2023-05-24T13:07:23.953Z,18.78
2023-05-24T13:08:23.991Z,17.46
2023-05-24T13:09:24.376Z,17.91
2023-05-24T13:10:24.092Z,15.69
2023-05-24T13:11:24.082Z,14.81
2023-05-24T13:12:24.174Z,15.22
2023-05-24T13:13:24.174Z,15.41
2023-05-24T13:14:24.206Z,15.48
2023-05-24T13:15:24.343Z,16.25
2023-05-24T13:16:24.319Z,16.45